sensor_id;sensor_type;location;lat;lon;timestamp;pressure;altitude;pressure_sealevel;temperature;humidity
68656;BME280;55638;51.122;13.606;2023-02-18T00:01:17;100365.63;;;8.67;57.66
68656;BME280;55638;51.122;13.606;2023-02-18T00:02:49;100360.16;;;8.69;57.96
68656;BME280;55638;51.122;13.606;2023-02-18T00:04:23;100367.22;;;8.70;57.65
68656;BME280;55638;51.122;13.606;2023-02-18T00:05:55;100354.78;;;8.69;57.89
68656;BME280;55638;51.122;13.606;2023-02-18T00:07:27;100359.16;;;8.70;57.91
68656;BME280;55638;51.122;13.606;2023-02-18T00:09:03;100355.72;;;8.68;57.56
68656;BME280;55638;51.122;13.606;2023-02-18T00:10:39;100353.03;;;8.68;57.16
68656;BME280;55638;51.122;13.606;2023-02-18T00:12:11;100362.06;;;8.67;57.32
68656;BME280;55638;51.122;13.606;2023-02-18T00:13:43;100357.56;;;8.67;57.24
68656;BME280;55638;51.122;13.606;2023-02-18T00:15:21;100353.25;;;8.65;56.95
68656;BME280;55638;51.122;13.606;2023-02-18T00:17:15;100364.25;;;8.62;57.12
68656;BME280;55638;51.122;13.606;2023-02-18T00:18:47;100352.84;;;8.58;57.08
68656;BME280;55638;51.122;13.606;2023-02-18T00:20:19;100352.13;;;8.56;56.91
68656;BME280;55638;51.122;13.606;2023-02-18T00:21:51;100349.03;;;8.49;56.93
68656;BME280;55638;51.122;13.606;2023-02-18T00:23:23;100345.56;;;8.47;57.06
68656;BME280;55638;51.122;13.606;2023-02-18T00:24:54;100359.22;;;8.44;57.02
68656;BME280;55638;51.122;13.606;2023-02-18T00:26:27;100348.81;;;8.40;57.20
68656;BME280;55638;51.122;13.606;2023-02-18T00:27:58;100351.72;;;8.37;57.36
68656;BME280;55638;51.122;13.606;2023-02-18T00:29:31;100357.31;;;8.33;57.34
68656;BME280;55638;51.122;13.606;2023-02-18T00:31:10;100353.16;;;8.29;57.13
68656;BME280;55638;51.122;13.606;2023-02-18T00:32:42;100354.09;;;8.28;57.58
68656;BME280;55638;51.122;13.606;2023-02-18T00:34:14;100357.63;;;8.29;57.57
68656;BME280;55638;51.122;13.606;2023-02-18T00:35:46;100356.91;;;8.27;57.49
68656;BME280;55638;51.122;13.606;2023-02-18T00:37:19;100353.44;;;8.25;57.58
68656;BME280;55638;51.122;13.606;2023-02-18T00:38:57;100367.81;;;8.24;57.30
68656;BME280;55638;51.122;13.606;2023-02-18T00:40:29;100362.47;;;8.24;57.62
68656;BME280;55638;51.122;13.606;2023-02-18T00:42:01;100361.69;;;8.22;57.64
68656;BME280;55638;51.122;13.606;2023-02-18T00:43:33;100369.75;;;8.22;57.44
68656;BME280;55638;51.122;13.606;2023-02-18T00:45:06;100373.50;;;8.19;57.51
68656;BME280;55638;51.122;13.606;2023-02-18T00:46:38;100372.56;;;8.20;57.49
68656;BME280;55638;51.122;13.606;2023-02-18T00:48:10;100360.97;;;8.20;57.49
68656;BME280;55638;51.122;13.606;2023-02-18T00:49:42;100366.34;;;8.20;57.59
68656;BME280;55638;51.122;13.606;2023-02-18T00:51:14;100368.13;;;8.19;57.54
68656;BME280;55638;51.122;13.606;2023-02-18T00:52:45;100375.34;;;8.19;57.60
68656;BME280;55638;51.122;13.606;2023-02-18T00:54:17;100378.03;;;8.19;57.58
68656;BME280;55638;51.122;13.606;2023-02-18T00:55:50;100384.25;;;8.19;57.37
68656;BME280;55638;51.122;13.606;2023-02-18T00:57:21;100373.63;;;8.18;57.62
68656;BME280;55638;51.122;13.606;2023-02-18T00:58:53;100380.72;;;8.19;57.48
68656;BME280;55638;51.122;13.606;2023-02-18T01:00:25;100380.72;;;8.19;57.64
68656;BME280;55638;51.122;13.606;2023-02-18T01:01:57;100379.13;;;8.16;57.46
68656;BME280;55638;51.122;13.606;2023-02-18T01:03:30;100377.28;;;8.17;57.35
68656;BME280;55638;51.122;13.606;2023-02-18T01:05:02;100369.25;;;8.17;57.45
68656;BME280;55638;51.122;13.606;2023-02-18T01:06:34;100384.50;;;8.16;57.58
68656;BME280;55638;51.122;13.606;2023-02-18T01:08:08;100386.06;;;8.19;57.32
68656;BME280;55638;51.122;13.606;2023-02-18T01:09:41;100375.56;;;8.16;57.31
68656;BME280;55638;51.122;13.606;2023-02-18T01:11:13;100384.50;;;8.16;57.51
68656;BME280;55638;51.122;13.606;2023-02-18T01:12:44;100381.69;;;8.18;57.29
68656;BME280;55638;51.122;13.606;2023-02-18T01:14:16;100394.91;;;8.21;57.45
68656;BME280;55638;51.122;13.606;2023-02-18T01:15:48;100378.88;;;8.19;57.29
68656;BME280;55638;51.122;13.606;2023-02-18T01:17:20;100382.44;;;8.20;57.40
68656;BME280;55638;51.122;13.606;2023-02-18T01:18:52;100381.47;;;8.21;57.08
68656;BME280;55638;51.122;13.606;2023-02-18T01:20:24;100390.38;;;8.21;57.22
68656;BME280;55638;51.122;13.606;2023-02-18T01:21:56;100390.38;;;8.21;57.21
68656;BME280;55638;51.122;13.606;2023-02-18T01:23:28;100385.88;;;8.22;57.11
68656;BME280;55638;51.122;13.606;2023-02-18T01:25:00;100391.22;;;8.22;56.94
68656;BME280;55638;51.122;13.606;2023-02-18T01:26:31;100385.00;;;8.21;56.90
68656;BME280;55638;51.122;13.606;2023-02-18T01:28:05;100385.00;;;8.21;56.80
68656;BME280;55638;51.122;13.606;2023-02-18T01:29:37;100382.44;;;8.20;56.76
68656;BME280;55638;51.122;13.606;2023-02-18T01:31:11;100375.34;;;8.19;56.47
68656;BME280;55638;51.122;13.606;2023-02-18T01:32:43;100386.94;;;8.19;56.55
68656;BME280;55638;51.122;13.606;2023-02-18T01:34:15;100380.72;;;8.19;56.34
68656;BME280;55638;51.122;13.606;2023-02-18T01:35:47;100374.69;;;8.15;56.45
68656;BME280;55638;51.122;13.606;2023-02-18T01:37:19;100373.06;;;8.13;56.49
68656;BME280;55638;51.122;13.606;2023-02-18T01:38:50;100374.28;;;8.08;56.08
68656;BME280;55638;51.122;13.606;2023-02-18T01:40:26;100374.41;;;8.07;56.11
68656;BME280;55638;51.122;13.606;2023-02-18T01:41:58;100378.16;;;8.04;56.48
68656;BME280;55638;51.122;13.606;2023-02-18T01:43:30;100378.34;;;8.01;56.23
68656;BME280;55638;51.122;13.606;2023-02-18T01:47:04;100383.28;;;7.95;56.34
68656;BME280;55638;51.122;13.606;2023-02-18T01:48:43;100369.13;;;7.93;56.19
68656;BME280;55638;51.122;13.606;2023-02-18T01:50:16;100377.50;;;7.88;56.13
68656;BME280;55638;51.122;13.606;2023-02-18T01:51:51;100370.63;;;7.84;56.38
68656;BME280;55638;51.122;13.606;2023-02-18T01:53:32;100385.19;;;7.80;56.00
68656;BME280;55638;51.122;13.606;2023-02-18T01:55:06;100379.97;;;7.78;56.49
68656;BME280;55638;51.122;13.606;2023-02-18T01:56:45;100384.69;;;7.75;56.13
68656;BME280;55638;51.122;13.606;2023-02-18T01:58:19;100380.38;;;7.72;56.35
68656;BME280;55638;51.122;13.606;2023-02-18T01:59:54;100375.13;;;7.71;56.50
68656;BME280;55638;51.122;13.606;2023-02-18T02:01:27;100374.38;;;7.69;56.71
68656;BME280;55638;51.122;13.606;2023-02-18T02:02:58;100364.69;;;7.66;56.63
68656;BME280;55638;51.122;13.606;2023-02-18T02:04:30;100370.19;;;7.65;56.71
68656;BME280;55638;51.122;13.606;2023-02-18T02:06:08;100378.31;;;7.63;56.38
68656;BME280;55638;51.122;13.606;2023-02-18T02:07:44;100371.25;;;7.62;56.70
68656;BME280;55638;51.122;13.606;2023-02-18T02:09:18;100376.81;;;7.59;56.73
68656;BME280;55638;51.122;13.606;2023-02-18T02:11:02;100377.03;;;7.56;56.77
68656;BME280;55638;51.122;13.606;2023-02-18T02:12:58;100383.66;;;7.50;56.85
68656;BME280;55638;51.122;13.606;2023-02-18T02:14:46;100390.00;;;7.49;56.85
68656;BME280;55638;51.122;13.606;2023-02-18T02:16:30;100398.03;;;7.49;56.96
68656;BME280;55638;51.122;13.606;2023-02-18T02:22:16;100386.75;;;7.44;57.26
68656;BME280;55638;51.122;13.606;2023-02-18T02:31:26;100380.31;;;7.47;57.45
68656;BME280;55638;51.122;13.606;2023-02-18T02:33:24;100373.25;;;7.46;57.05
68656;BME280;55638;51.122;13.606;2023-02-18T02:35:06;100379.34;;;7.48;57.52
68656;BME280;55638;51.122;13.606;2023-02-18T02:36:52;100372.91;;;7.50;57.64
68656;BME280;55638;51.122;13.606;2023-02-18T02:40:37;100367.34;;;7.53;57.38
68656;BME280;55638;51.122;13.606;2023-02-18T02:42:25;100375.53;;;7.52;56.93
68656;BME280;55638;51.122;13.606;2023-02-18T02:46:09;100375.31;;;7.55;57.04
68656;BME280;55638;51.122;13.606;2023-02-18T02:48:16;100382.25;;;7.57;57.22
68656;BME280;55638;51.122;13.606;2023-02-18T02:51:47;100376.41;;;7.65;56.95
68656;BME280;55638;51.122;13.606;2023-02-18T02:53:25;100366.41;;;7.67;56.89
68656;BME280;55638;51.122;13.606;2023-02-18T02:54:58;100373.31;;;7.71;56.72
68656;BME280;55638;51.122;13.606;2023-02-18T02:56:30;100368.78;;;7.72;56.90
68656;BME280;55638;51.122;13.606;2023-02-18T02:58:01;100361.25;;;7.77;56.64
68656;BME280;55638;51.122;13.606;2023-02-18T02:59:40;100370.19;;;7.77;56.25
68656;BME280;55638;51.122;13.606;2023-02-18T03:01:28;100371.78;;;7.80;56.57
68656;BME280;55638;51.122;13.606;2023-02-18T03:03:17;100366.31;;;7.81;56.33
68656;BME280;55638;51.122;13.606;2023-02-18T03:08:29;100367.50;;;7.90;56.14
68656;BME280;55638;51.122;13.606;2023-02-18T03:10:47;100364.94;;;7.89;56.24
68656;BME280;55638;51.122;13.606;2023-02-18T03:12:39;100373.63;;;7.92;55.88
68656;BME280;55638;51.122;13.606;2023-02-18T03:14:27;100379.75;;;7.94;55.73
68656;BME280;55638;51.122;13.606;2023-02-18T03:16:27;100386.06;;;7.93;55.47
68656;BME280;55638;51.122;13.606;2023-02-18T03:18:07;100376.94;;;7.96;55.17
68656;BME280;55638;51.122;13.606;2023-02-18T03:19:50;100373.41;;;7.95;55.04
68656;BME280;55638;51.122;13.606;2023-02-18T03:21:29;100370.72;;;7.95;54.49
68656;BME280;55638;51.122;13.606;2023-02-18T03:23:09;100365.16;;;7.98;55.34
68656;BME280;55638;51.122;13.606;2023-02-18T03:24:45;100369.44;;;8.01;55.29
68656;BME280;55638;51.122;13.606;2023-02-18T03:26:18;100368.59;;;8.00;54.72
68656;BME280;55638;51.122;13.606;2023-02-18T03:27:55;100366.00;;;7.99;55.06
68656;BME280;55638;51.122;13.606;2023-02-18T03:29:29;100367.84;;;7.98;55.16
68656;BME280;55638;51.122;13.606;2023-02-18T03:31:06;100372.34;;;7.98;54.80
68656;BME280;55638;51.122;13.606;2023-02-18T03:32:39;100378.56;;;7.98;55.29
68656;BME280;55638;51.122;13.606;2023-02-18T03:34:14;100374.91;;;7.99;55.03
68656;BME280;55638;51.122;13.606;2023-02-18T03:35:48;100365.03;;;8.00;55.12
68656;BME280;55638;51.122;13.606;2023-02-18T03:37:21;100369.53;;;7.99;55.15
68656;BME280;55638;51.122;13.606;2023-02-18T03:38:58;100373.19;;;7.98;54.61
68656;BME280;55638;51.122;13.606;2023-02-18T03:40:31;100372.34;;;7.98;55.00
68656;BME280;55638;51.122;13.606;2023-02-18T03:42:04;100371.38;;;7.99;55.02
68656;BME280;55638;51.122;13.606;2023-02-18T03:43:39;100367.84;;;7.98;54.90
68656;BME280;55638;51.122;13.606;2023-02-18T03:45:11;100357.22;;;7.97;54.80
68656;BME280;55638;51.122;13.606;2023-02-18T03:46:45;100364.38;;;7.96;54.93
68656;BME280;55638;51.122;13.606;2023-02-18T03:48:17;100367.06;;;7.96;54.94
68656;BME280;55638;51.122;13.606;2023-02-18T03:49:49;100360.97;;;7.94;55.05
68656;BME280;55638;51.122;13.606;2023-02-18T03:51:21;100359.13;;;7.95;55.07
68656;BME280;55638;51.122;13.606;2023-02-18T03:52:52;100363.66;;;7.94;55.04
68656;BME280;55638;51.122;13.606;2023-02-18T03:54:24;100360.13;;;7.94;55.05
68656;BME280;55638;51.122;13.606;2023-02-18T03:55:56;100355.59;;;7.94;54.82
68656;BME280;55638;51.122;13.606;2023-02-18T03:57:28;100360.97;;;7.94;55.02
68656;BME280;55638;51.122;13.606;2023-02-18T03:58:59;100375.25;;;7.95;55.10
68656;BME280;55638;51.122;13.606;2023-02-18T04:00:31;100369.97;;;7.93;54.98
68656;BME280;55638;51.122;13.606;2023-02-18T04:02:03;100367.28;;;7.93;55.20
68656;BME280;55638;51.122;13.606;2023-02-18T04:03:35;100371.78;;;7.93;55.22
68656;BME280;55638;51.122;13.606;2023-02-18T04:05:07;100376.44;;;7.91;55.07
68656;BME280;55638;51.122;13.606;2023-02-18T04:06:39;100377.28;;;7.91;55.07
68656;BME280;55638;51.122;13.606;2023-02-18T04:08:10;100378.13;;;7.92;55.17
68656;BME280;55638;51.122;13.606;2023-02-18T04:09:42;100373.84;;;7.89;55.21
68656;BME280;55638;51.122;13.606;2023-02-18T04:11:14;100374.69;;;7.90;55.24
68656;BME280;55638;51.122;13.606;2023-02-18T04:12:46;100374.69;;;7.90;55.30
68656;BME280;55638;51.122;13.606;2023-02-18T04:14:18;100377.38;;;7.90;55.17
68656;BME280;55638;51.122;13.606;2023-02-18T04:15:50;100381.88;;;7.89;55.37
68656;BME280;55638;51.122;13.606;2023-02-18T04:17:22;100373.84;;;7.89;55.42
68656;BME280;55638;51.122;13.606;2023-02-18T04:18:54;100373.84;;;7.89;55.38
68656;BME280;55638;51.122;13.606;2023-02-18T04:20:26;100369.31;;;7.90;55.56
68656;BME280;55638;51.122;13.606;2023-02-18T04:21:58;100365.06;;;7.87;55.34
68656;BME280;55638;51.122;13.606;2023-02-18T04:23:29;100385.56;;;7.88;55.61
68656;BME280;55638;51.122;13.606;2023-02-18T04:25:01;100374.81;;;7.88;55.25
68656;BME280;55638;51.122;13.606;2023-02-18T04:26:33;100377.50;;;7.88;55.50
68656;BME280;55638;51.122;13.606;2023-02-18T04:28:05;100376.53;;;7.89;55.54
68656;BME280;55638;51.122;13.606;2023-02-18T04:29:37;100391.78;;;7.89;55.56
68656;BME280;55638;51.122;13.606;2023-02-18T04:31:08;100376.53;;;7.89;55.61
68656;BME280;55638;51.122;13.606;2023-02-18T04:32:42;100373.84;;;7.89;55.51
68656;BME280;55638;51.122;13.606;2023-02-18T04:34:13;100369.31;;;7.90;55.63
68656;BME280;55638;51.122;13.606;2023-02-18T04:35:45;100354.97;;;7.91;55.70
68656;BME280;55638;51.122;13.606;2023-02-18T04:37:17;100349.47;;;7.92;55.50
68656;BME280;55638;51.122;13.606;2023-02-18T04:38:49;100337.88;;;7.92;55.60
68656;BME280;55638;51.122;13.606;2023-02-18T04:40:20;100338.84;;;7.91;55.67
68656;BME280;55638;51.122;13.606;2023-02-18T04:41:52;100351.28;;;7.92;55.73
68656;BME280;55638;51.122;13.606;2023-02-18T04:43:24;100350.53;;;7.90;55.79
68656;BME280;55638;51.122;13.606;2023-02-18T04:44:56;100354.06;;;7.90;55.89
68656;BME280;55638;51.122;13.606;2023-02-18T04:46:27;100358.59;;;7.90;55.71
68656;BME280;55638;51.122;13.606;2023-02-18T04:47:59;100357.53;;;7.92;55.95
68656;BME280;55638;51.122;13.606;2023-02-18T04:49:31;100364.81;;;7.90;56.00
68656;BME280;55638;51.122;13.606;2023-02-18T04:51:03;100365.78;;;7.89;55.96
68656;BME280;55638;51.122;13.606;2023-02-18T04:52:35;100372.97;;;7.89;56.01
68656;BME280;55638;51.122;13.606;2023-02-18T04:54:07;100376.53;;;7.89;56.20
68656;BME280;55638;51.122;13.606;2023-02-18T04:55:39;100370.28;;;7.89;56.09
68656;BME280;55638;51.122;13.606;2023-02-18T04:57:11;100371.16;;;7.89;56.11
68656;BME280;55638;51.122;13.606;2023-02-18T04:58:43;100372.13;;;7.88;56.24
68656;BME280;55638;51.122;13.606;2023-02-18T05:00:17;100369.44;;;7.88;56.17
68656;BME280;55638;51.122;13.606;2023-02-18T05:01:49;100365.06;;;7.87;56.44
68656;BME280;55638;51.122;13.606;2023-02-18T05:03:21;100372.13;;;7.88;56.38
68656;BME280;55638;51.122;13.606;2023-02-18T05:04:53;100364.06;;;7.88;56.33
68656;BME280;55638;51.122;13.606;2023-02-18T05:06:24;100369.44;;;7.88;56.21
68656;BME280;55638;51.122;13.606;2023-02-18T05:07:56;100375.78;;;7.87;56.27
68656;BME280;55638;51.122;13.606;2023-02-18T05:09:28;100361.47;;;7.86;56.20
68656;BME280;55638;51.122;13.606;2023-02-18T05:11:04;100363.44;;;7.84;55.83
68656;BME280;55638;51.122;13.606;2023-02-18T05:12:36;100361.47;;;7.86;56.43
68656;BME280;55638;51.122;13.606;2023-02-18T05:14:08;100359.69;;;7.87;56.13
68656;BME280;55638;51.122;13.606;2023-02-18T05:15:40;100356.88;;;7.89;56.27
68656;BME280;55638;51.122;13.606;2023-02-18T05:17:12;100352.38;;;7.89;56.40
68656;BME280;55638;51.122;13.606;2023-02-18T05:18:43;100353.22;;;7.90;56.13
68656;BME280;55638;51.122;13.606;2023-02-18T05:20:16;100351.28;;;7.92;56.18
68656;BME280;55638;51.122;13.606;2023-02-18T05:21:47;100364.81;;;7.90;56.29
68656;BME280;55638;51.122;13.606;2023-02-18T05:23:19;100348.72;;;7.90;56.47
68656;BME280;55638;51.122;13.606;2023-02-18T05:24:52;100342.47;;;7.90;56.40
68656;BME280;55638;51.122;13.606;2023-02-18T05:26:23;100345.94;;;7.92;56.39
68656;BME280;55638;51.122;13.606;2023-02-18T05:27:55;100337.03;;;7.91;56.26
68656;BME280;55638;51.122;13.606;2023-02-18T05:29:27;100335.19;;;7.92;56.38
68656;BME280;55638;51.122;13.606;2023-02-18T05:30:59;100335.06;;;7.93;56.52
68656;BME280;55638;51.122;13.606;2023-02-18T05:32:31;100339.59;;;7.93;56.23
68656;BME280;55638;51.122;13.606;2023-02-18T05:34:03;100334.13;;;7.94;56.39
68656;BME280;55638;51.122;13.606;2023-02-18T05:35:35;100334.13;;;7.94;56.48
68656;BME280;55638;51.122;13.606;2023-02-18T05:37:06;100326.06;;;7.94;56.51
68656;BME280;55638;51.122;13.606;2023-02-18T05:38:38;100326.06;;;7.94;56.37
68656;BME280;55638;51.122;13.606;2023-02-18T05:40:11;100322.41;;;7.95;56.59
68656;BME280;55638;51.122;13.606;2023-02-18T05:41:42;100326.16;;;7.93;56.57
68656;BME280;55638;51.122;13.606;2023-02-18T05:43:14;100329.63;;;7.95;56.44
68656;BME280;55638;51.122;13.606;2023-02-18T05:44:46;100323.38;;;7.94;56.57
68656;BME280;55638;51.122;13.606;2023-02-18T05:46:18;100321.66;;;7.93;56.67
68656;BME280;55638;51.122;13.606;2023-02-18T05:47:50;100320.78;;;7.93;56.72
68656;BME280;55638;51.122;13.606;2023-02-18T05:49:23;100324.34;;;7.93;56.72
68656;BME280;55638;51.122;13.606;2023-02-18T05:50:54;100319.84;;;7.94;56.71
68656;BME280;55638;51.122;13.606;2023-02-18T05:52:26;100327.03;;;7.93;56.73
68656;BME280;55638;51.122;13.606;2023-02-18T05:53:58;100316.28;;;7.93;56.81
68656;BME280;55638;51.122;13.606;2023-02-18T05:55:30;100316.28;;;7.93;56.89
68656;BME280;55638;51.122;13.606;2023-02-18T05:57:02;100323.47;;;7.93;56.88
68656;BME280;55638;51.122;13.606;2023-02-18T05:58:34;100318.97;;;7.93;57.07
68656;BME280;55638;51.122;13.606;2023-02-18T06:00:06;100312.88;;;7.91;57.13
68656;BME280;55638;51.122;13.606;2023-02-18T06:01:40;100319.94;;;7.92;57.16
68656;BME280;55638;51.122;13.606;2023-02-18T06:03:12;100315.66;;;7.90;57.40
68656;BME280;55638;51.122;13.606;2023-02-18T06:04:43;100319.31;;;7.89;57.26
68656;BME280;55638;51.122;13.606;2023-02-18T06:06:15;100315.84;;;7.86;57.36
68656;BME280;55638;51.122;13.606;2023-02-18T06:07:47;100307.06;;;7.84;57.55
68656;BME280;55638;51.122;13.606;2023-02-18T06:09:19;100309.84;;;7.83;57.38
68656;BME280;55638;51.122;13.606;2023-02-18T06:10:51;100315.34;;;7.81;57.76
68656;BME280;55638;51.122;13.606;2023-02-18T06:12:23;100312.75;;;7.80;57.78
68656;BME280;55638;51.122;13.606;2023-02-18T06:13:55;100309.34;;;7.78;57.73
68656;BME280;55638;51.122;13.606;2023-02-18T06:15:27;100313.06;;;7.75;57.90
68656;BME280;55638;51.122;13.606;2023-02-18T06:16:58;100315.13;;;7.72;58.18
68656;BME280;55638;51.122;13.606;2023-02-18T06:18:30;100313.41;;;7.71;58.27
68656;BME280;55638;51.122;13.606;2023-02-18T06:20:02;100309.97;;;7.69;58.30
68656;BME280;55638;51.122;13.606;2023-02-18T06:21:34;100307.38;;;7.67;58.35
68656;BME280;55638;51.122;13.606;2023-02-18T06:23:06;100297.75;;;7.65;58.40
68656;BME280;55638;51.122;13.606;2023-02-18T06:24:38;100302.34;;;7.62;58.43
68656;BME280;55638;51.122;13.606;2023-02-18T06:26:11;100304.25;;;7.60;58.52
68656;BME280;55638;51.122;13.606;2023-02-18T06:27:42;100300.84;;;7.58;58.67
68656;BME280;55638;51.122;13.606;2023-02-18T06:29:14;100301.78;;;7.57;58.87
68656;BME280;55638;51.122;13.606;2023-02-18T06:30:46;100309.19;;;7.54;58.96
68656;BME280;55638;51.122;13.606;2023-02-18T06:32:18;100303.19;;;7.50;59.20
68656;BME280;55638;51.122;13.606;2023-02-18T06:33:50;100308.53;;;7.50;59.30
68656;BME280;55638;51.122;13.606;2023-02-18T06:35:22;100301.47;;;7.49;59.17
68656;BME280;55638;51.122;13.606;2023-02-18T06:36:54;100301.69;;;7.46;59.32
68656;BME280;55638;51.122;13.606;2023-02-18T06:38:26;100299.97;;;7.45;59.38
68656;BME280;55638;51.122;13.606;2023-02-18T06:39:58;100302.75;;;7.44;59.53
68656;BME280;55638;51.122;13.606;2023-02-18T06:41:29;100301.03;;;7.43;59.72
68656;BME280;55638;51.122;13.606;2023-02-18T06:43:01;100293.09;;;7.41;59.61
68656;BME280;55638;51.122;13.606;2023-02-18T06:44:33;100298.44;;;7.41;59.84
68656;BME280;55638;51.122;13.606;2023-02-18T06:46:08;100295.03;;;7.39;60.02
68656;BME280;55638;51.122;13.606;2023-02-18T06:47:40;100287.06;;;7.37;59.92
68656;BME280;55638;51.122;13.606;2023-02-18T06:49:12;100291.59;;;7.37;60.10
68656;BME280;55638;51.122;13.606;2023-02-18T06:50:44;100289.88;;;7.36;60.09
68656;BME280;55638;51.122;13.606;2023-02-18T06:52:16;100296.22;;;7.35;60.18
68656;BME280;55638;51.122;13.606;2023-02-18T06:53:47;100295.44;;;7.33;60.50
68656;BME280;55638;51.122;13.606;2023-02-18T06:55:20;100298.97;;;7.33;60.54
68656;BME280;55638;51.122;13.606;2023-02-18T06:56:52;100295.53;;;7.31;60.58
68656;BME280;55638;51.122;13.606;2023-02-18T06:58:24;100298.22;;;7.31;60.63
68656;BME280;55638;51.122;13.606;2023-02-18T06:59:56;100292.00;;;7.31;60.52
68656;BME280;55638;51.122;13.606;2023-02-18T07:01:27;100290.28;;;7.30;60.78
68656;BME280;55638;51.122;13.606;2023-02-18T07:02:59;100284.94;;;7.30;60.91
68656;BME280;55638;51.122;13.606;2023-02-18T07:04:31;100293.75;;;7.32;60.76
68656;BME280;55638;51.122;13.606;2023-02-18T07:06:03;100286.75;;;7.29;60.99
68656;BME280;55638;51.122;13.606;2023-02-18T07:07:35;100287.69;;;7.28;61.13
68656;BME280;55638;51.122;13.606;2023-02-18T07:09:07;100288.59;;;7.29;61.04
68656;BME280;55638;51.122;13.606;2023-02-18T07:10:38;100276.88;;;7.30;61.06
68656;BME280;55638;51.122;13.606;2023-02-18T07:12:10;100282.25;;;7.30;61.13
68656;BME280;55638;51.122;13.606;2023-02-18T07:13:42;100276.03;;;7.29;61.30
68656;BME280;55638;51.122;13.606;2023-02-18T07:15:14;100275.91;;;7.31;61.40
68656;BME280;55638;51.122;13.606;2023-02-18T07:16:46;100270.53;;;7.31;61.41
68656;BME280;55638;51.122;13.606;2023-02-18T07:18:18;100266.94;;;7.32;61.52
68656;BME280;55638;51.122;13.606;2023-02-18T07:19:49;100268.63;;;7.33;61.50
68656;BME280;55638;51.122;13.606;2023-02-18T07:21:21;100264.13;;;7.33;61.50
68656;BME280;55638;51.122;13.606;2023-02-18T07:22:53;100258.75;;;7.33;61.54
68656;BME280;55638;51.122;13.606;2023-02-18T07:24:25;100259.63;;;7.34;61.77
68656;BME280;55638;51.122;13.606;2023-02-18T07:26:10;100259.72;;;7.32;62.18
68656;BME280;55638;51.122;13.606;2023-02-18T07:27:42;100256.00;;;7.35;61.92
68656;BME280;55638;51.122;13.606;2023-02-18T07:29:14;100251.47;;;7.35;61.82
68656;BME280;55638;51.122;13.606;2023-02-18T07:30:46;100248.69;;;7.37;61.86
68656;BME280;55638;51.122;13.606;2023-02-18T07:32:18;100259.41;;;7.37;62.14
68656;BME280;55638;51.122;13.606;2023-02-18T07:33:50;100244.16;;;7.37;62.09
68656;BME280;55638;51.122;13.606;2023-02-18T07:35:22;100247.69;;;7.38;62.18
68656;BME280;55638;51.122;13.606;2023-02-18T07:36:54;100257.47;;;7.39;62.02
68656;BME280;55638;51.122;13.606;2023-02-18T07:38:26;100244.06;;;7.39;62.06
68656;BME280;55638;51.122;13.606;2023-02-18T07:39:58;100239.44;;;7.41;62.11
68656;BME280;55638;51.122;13.606;2023-02-18T07:41:30;100241.19;;;7.42;62.26
68656;BME280;55638;51.122;13.606;2023-02-18T07:43:02;100242.13;;;7.41;62.21
68656;BME280;55638;51.122;13.606;2023-02-18T07:44:35;100236.66;;;7.43;62.26
68656;BME280;55638;51.122;13.606;2023-02-18T07:46:07;100225.94;;;7.43;62.30
68656;BME280;55638;51.122;13.606;2023-02-18T07:47:40;100226.81;;;7.43;62.41
68656;BME280;55638;51.122;13.606;2023-02-18T07:49:13;100228.50;;;7.44;62.21
68656;BME280;55638;51.122;13.606;2023-02-18T07:50:45;100213.94;;;7.48;62.28
68656;BME280;55638;51.122;13.606;2023-02-18T07:52:17;100203.31;;;7.47;62.33
68656;BME280;55638;51.122;13.606;2023-02-18T07:53:48;100217.56;;;7.47;62.42
68656;BME280;55638;51.122;13.606;2023-02-18T07:55:20;100225.59;;;7.47;62.46
68656;BME280;55638;51.122;13.606;2023-02-18T07:56:52;100223.78;;;7.48;62.22
68656;BME280;55638;51.122;13.606;2023-02-18T07:58:27;100206.75;;;7.49;62.61
68656;BME280;55638;51.122;13.606;2023-02-18T07:59:59;100210.28;;;7.49;62.57
68656;BME280;55638;51.122;13.606;2023-02-18T08:01:31;100204.91;;;7.49;62.57
68656;BME280;55638;51.122;13.606;2023-02-18T08:03:05;100220.03;;;7.50;62.51
68656;BME280;55638;51.122;13.606;2023-02-18T08:04:37;100207.59;;;7.49;62.70
68656;BME280;55638;51.122;13.606;2023-02-18T08:06:19;100204.91;;;7.49;63.02
68656;BME280;55638;51.122;13.606;2023-02-18T08:07:51;100195.69;;;7.53;62.59
68656;BME280;55638;51.122;13.606;2023-02-18T08:09:23;100194.69;;;7.54;62.57
68656;BME280;55638;51.122;13.606;2023-02-18T08:10:58;100183.25;;;7.52;62.64
68656;BME280;55638;51.122;13.606;2023-02-18T08:12:37;100179.59;;;7.53;62.57
68656;BME280;55638;51.122;13.606;2023-02-18T08:14:09;100186.66;;;7.54;62.84
68656;BME280;55638;51.122;13.606;2023-02-18T08:15:41;100186.56;;;7.56;62.74
68656;BME280;55638;51.122;13.606;2023-02-18T08:17:13;100190.09;;;7.56;62.84
68656;BME280;55638;51.122;13.606;2023-02-18T08:18:45;100186.44;;;7.57;62.78
68656;BME280;55638;51.122;13.606;2023-02-18T08:20:18;100185.50;;;7.58;63.03
68656;BME280;55638;51.122;13.606;2023-02-18T08:21:50;100180.84;;;7.60;62.88
68656;BME280;55638;51.122;13.606;2023-02-18T08:23:21;100178.19;;;7.60;63.12
68656;BME280;55638;51.122;13.606;2023-02-18T08:24:54;100171.88;;;7.61;63.01
68656;BME280;55638;51.122;13.606;2023-02-18T08:26:27;100179.78;;;7.63;63.09
68656;BME280;55638;51.122;13.606;2023-02-18T08:27:59;100183.22;;;7.65;63.26
68656;BME280;55638;51.122;13.606;2023-02-18T08:29:30;100174.19;;;7.66;63.16
68656;BME280;55638;51.122;13.606;2023-02-18T08:31:02;100166.91;;;7.68;63.17
68656;BME280;55638;51.122;13.606;2023-02-18T08:32:35;100161.41;;;7.70;63.02
68656;BME280;55638;51.122;13.606;2023-02-18T08:34:07;100144.38;;;7.71;63.16